createdAt,value
2018-03-14T00:00:03.631Z,13.73
2018-03-14T00:02:33.485Z,13.13
2018-03-14T00:05:02.351Z,13.20
2018-03-14T00:07:32.162Z,13.87
2018-03-14T00:10:01.940Z,12.17
2018-03-14T00:12:33.714Z,13.47
2018-03-14T00:15:03.099Z,14.17
2018-03-14T00:17:31.968Z,14.40
2018-03-14T00:20:00.920Z,12.77
2018-03-14T00:22:33.614Z,12.40
2018-03-14T00:25:02.542Z,14.43
2018-03-14T00:27:32.564Z,15.07
2018-03-14T00:30:01.421Z,13.63
2018-03-14T00:32:30.308Z,14.90
2018-03-14T00:35:00.163Z,15.93
2018-03-14T00:37:29.027Z,15.03
2018-03-14T00:39:57.910Z,15.17
2018-03-14T00:42:26.788Z,17.10
2018-03-14T00:44:55.668Z,15.77
2018-03-14T00:47:24.552Z,15.83
2018-03-14T00:49:53.419Z,15.40
2018-03-14T00:52:22.281Z,16.07
2018-03-14T00:54:51.176Z,13.33
2018-03-14T00:57:20.032Z,12.03
2018-03-14T00:59:48.961Z,15.17
2018-03-14T01:02:17.835Z,15.33
2018-03-14T01:04:46.717Z,11.50
2018-03-14T01:07:15.627Z,16.63
2018-03-14T01:09:44.532Z,15.83
2018-03-14T01:12:13.401Z,16.23
2018-03-14T01:14:42.285Z,16.40
2018-03-14T01:17:11.175Z,17.10
2018-03-14T01:19:40.039Z,18.97
2018-03-14T01:22:08.903Z,17.73
2018-03-14T01:24:37.820Z,17.50
2018-03-14T01:27:06.676Z,20.03
2018-03-14T01:29:35.530Z,18.90
2018-03-14T01:32:05.172Z,16.53
2018-03-14T01:34:34.035Z,15.27
2018-03-14T01:37:02.913Z,19.83
2018-03-14T01:39:32.591Z,16.70
2018-03-14T01:42:01.473Z,17.87
2018-03-14T01:44:30.338Z,13.17
2018-03-14T01:46:59.485Z,16.63
2018-03-14T01:49:28.348Z,10.40
2018-03-14T01:51:57.217Z,15.43
2018-03-14T01:54:26.088Z,19.57
2018-03-14T01:56:54.943Z,14.73
2018-03-14T01:59:23.821Z,14.83
2018-03-14T02:01:53.061Z,14.63
2018-03-14T02:04:22.684Z,13.37
2018-03-14T02:06:52.360Z,16.27
2018-03-14T02:09:21.210Z,15.77
2018-03-14T02:11:50.422Z,16.70
2018-03-14T02:14:19.941Z,15.50
2018-03-14T02:16:49.510Z,18.17
2018-03-14T02:19:19.003Z,19.00
2018-03-14T02:21:47.897Z,18.80
2018-03-14T02:24:16.757Z,13.70
2018-03-14T02:26:46.560Z,19.47
2018-03-14T02:29:15.450Z,19.17
2018-03-14T02:31:44.303Z,14.97
2018-03-14T02:34:14.065Z,13.23
2018-03-14T02:36:57.838Z,13.23
2018-03-14T02:39:26.714Z,14.30
2018-03-14T02:41:55.568Z,17.37
2018-03-14T02:44:24.472Z,15.70
2018-03-14T02:46:54.235Z,16.30
2018-03-14T02:49:23.081Z,14.87
2018-03-14T02:51:52.609Z,13.23
2018-03-14T02:54:21.448Z,13.03
2018-03-14T02:56:50.321Z,12.50
2018-03-14T02:59:19.194Z,14.63
2018-03-14T03:01:48.053Z,13.23
2018-03-14T03:04:16.906Z,13.10
2018-03-14T03:06:49.583Z,13.97
2018-03-14T03:09:18.844Z,14.13
2018-03-14T03:11:47.710Z,13.33
2018-03-14T03:14:16.581Z,17.70
2018-03-14T03:16:45.414Z,16.77
2018-03-14T03:19:14.267Z,14.07
2018-03-14T03:21:43.691Z,13.57
2018-03-14T03:24:12.553Z,15.83
2018-03-14T03:26:41.403Z,16.90
2018-03-14T03:29:10.265Z,16.47
2018-03-14T03:31:39.100Z,16.63
2018-03-14T03:34:07.975Z,13.73
2018-03-14T03:36:39.160Z,15.73
2018-03-14T03:39:08.006Z,17.57
2018-03-14T03:41:36.866Z,17.03
2018-03-14T03:44:06.253Z,14.93
2018-03-14T03:46:35.797Z,17.57
2018-03-14T03:49:04.695Z,14.83
2018-03-14T03:51:33.571Z,16.83
2018-03-14T03:54:02.460Z,19.10
2018-03-14T03:56:31.361Z,19.53
2018-03-14T03:59:00.235Z,20.80
2018-03-14T04:01:29.073Z,17.10
2018-03-14T04:03:57.942Z,16.70
2018-03-14T04:06:26.819Z,24.00
2018-03-14T04:08:55.719Z,23.47
2018-03-14T04:11:24.587Z,14.13
2018-03-14T04:13:53.467Z,19.43
2018-03-14T04:16:22.303Z,18.13
2018-03-14T04:18:51.198Z,15.27
2018-03-14T04:21:20.042Z,19.00
2018-03-14T04:26:24.212Z,18.03
2018-03-14T04:28:53.054Z,17.40
2018-03-14T04:31:21.912Z,17.73
2018-03-14T04:33:51.135Z,16.10
2018-03-14T04:36:19.997Z,16.40
2018-03-14T04:38:48.861Z,15.83
2018-03-14T04:41:17.731Z,15.30
2018-03-14T04:43:46.563Z,16.03
2018-03-14T04:46:15.413Z,16.03
2018-03-14T04:48:44.300Z,15.47
2018-03-14T04:51:13.185Z,15.07
2018-03-14T04:53:42.054Z,14.93
2018-03-14T04:56:10.927Z,15.23
2018-03-14T04:58:40.421Z,15.77
2018-03-14T05:01:09.259Z,16.47
2018-03-14T05:03:38.469Z,16.20
2018-03-14T05:06:07.307Z,14.17
2018-03-14T05:08:36.955Z,16.30
2018-03-14T05:11:05.813Z,16.93
2018-03-14T05:13:34.705Z,14.10
2018-03-14T05:16:03.627Z,16.50
2018-03-14T05:18:33.102Z,16.73
2018-03-14T05:21:02.936Z,16.63
2018-03-14T05:23:32.677Z,15.60
2018-03-14T05:26:01.520Z,17.10
2018-03-14T05:28:32.189Z,16.03
2018-03-14T05:31:01.031Z,16.17
2018-03-14T05:33:29.875Z,16.80
2018-03-14T05:35:59.629Z,15.60
2018-03-14T05:38:28.472Z,14.37
2018-03-14T05:40:57.308Z,16.13
2018-03-14T05:43:26.160Z,17.60
2018-03-14T05:45:55.004Z,16.30
2018-03-14T05:48:23.876Z,17.17
2018-03-14T05:50:52.719Z,18.20
2018-03-14T05:53:21.587Z,17.23
2018-03-14T05:55:51.086Z,16.60
2018-03-14T05:58:19.971Z,17.53
2018-03-14T06:00:48.808Z,15.50
2018-03-14T06:03:17.755Z,16.43
2018-03-14T06:05:46.725Z,17.83
2018-03-14T06:08:15.588Z,16.57
2018-03-14T06:10:44.439Z,14.27
2018-03-14T06:13:13.314Z,16.93
2018-03-14T06:15:42.217Z,15.77
2018-03-14T06:18:11.060Z,17.63
2018-03-14T06:20:39.905Z,16.17
2018-03-14T06:23:08.823Z,16.90
2018-03-14T06:25:37.789Z,14.50
2018-03-14T06:28:07.554Z,15.10
2018-03-14T06:30:37.248Z,18.47
2018-03-14T06:33:06.086Z,16.43
2018-03-14T06:35:36.672Z,17.73
2018-03-14T06:38:17.937Z,20.27
2018-03-14T06:40:46.804Z,20.17
2018-03-14T06:43:15.700Z,23.33
2018-03-14T06:45:44.570Z,24.80
2018-03-14T06:48:14.372Z,20.40
2018-03-14T06:50:43.211Z,23.07
2018-03-14T06:53:16.118Z,25.53
2018-03-14T06:55:45.006Z,26.97
2018-03-14T06:58:19.790Z,27.00
2018-03-14T07:00:54.547Z,25.73
2018-03-14T07:03:29.346Z,22.67
2018-03-14T07:06:04.758Z,24.73
2018-03-14T07:08:34.320Z,23.80
2018-03-14T07:11:03.224Z,23.53
2018-03-14T07:13:32.174Z,24.80
2018-03-14T07:16:01.008Z,23.43
2018-03-14T07:18:29.854Z,22.93
2018-03-14T07:20:58.730Z,21.83
2018-03-14T07:23:27.582Z,22.83
2018-03-14T07:25:56.432Z,22.67
2018-03-14T07:28:25.316Z,23.40
2018-03-14T07:30:54.850Z,21.40
2018-03-14T07:33:23.747Z,21.20
2018-03-14T07:35:52.685Z,20.47
2018-03-14T07:38:21.530Z,21.27
2018-03-14T07:40:51.044Z,19.97
2018-03-14T07:43:20.684Z,20.33
2018-03-14T07:45:49.875Z,21.43
2018-03-14T07:48:19.046Z,22.87
2018-03-14T07:50:47.912Z,22.97
2018-03-14T07:53:17.110Z,23.13
2018-03-14T07:55:45.952Z,23.60
2018-03-14T07:58:15.812Z,22.30
2018-03-14T08:00:44.968Z,22.20
2018-03-14T08:03:13.864Z,22.07
2018-03-14T08:05:42.827Z,23.50
2018-03-14T08:08:12.704Z,23.53
2018-03-14T08:10:42.195Z,22.90
2018-03-14T08:13:11.638Z,22.00
2018-03-14T08:15:48.512Z,22.67
2018-03-14T08:18:18.122Z,23.00
2018-03-14T08:20:47.465Z,23.50
2018-03-14T08:23:33.849Z,25.00
2018-03-14T08:26:06.421Z,23.73
2018-03-14T08:28:35.268Z,25.57
2018-03-14T08:31:04.128Z,24.43
2018-03-14T08:33:32.984Z,23.90
2018-03-14T08:36:02.751Z,23.50
2018-03-14T08:38:34.311Z,22.27
2018-03-14T08:41:03.175Z,23.20
2018-03-14T08:43:32.018Z,22.93
2018-03-14T08:46:00.906Z,22.63
2018-03-14T08:48:29.746Z,22.07
2018-03-14T08:51:07.798Z,22.83
2018-03-14T08:53:38.231Z,22.63
2018-03-14T08:56:07.098Z,22.57
2018-03-14T08:58:36.818Z,22.43
2018-03-14T09:01:05.673Z,21.43
2018-03-14T09:03:34.540Z,23.20
2018-03-14T09:06:03.422Z,21.87
2018-03-14T09:08:32.288Z,20.57
2018-03-14T09:11:01.163Z,20.07
2018-03-14T09:13:30.004Z,19.37
2018-03-14T09:16:00.702Z,18.07
2018-03-14T09:18:29.576Z,17.63
2018-03-14T09:20:59.034Z,18.17
2018-03-14T09:23:27.892Z,17.03
2018-03-14T09:25:56.812Z,15.47
2018-03-14T09:28:25.676Z,15.07
2018-03-14T09:30:54.518Z,14.30
2018-03-14T09:33:23.421Z,15.53
2018-03-14T09:35:52.273Z,15.43
2018-03-14T09:38:21.896Z,14.33
2018-03-14T09:40:51.125Z,15.03
2018-03-14T09:43:19.976Z,13.30
2018-03-14T09:45:48.839Z,14.83
2018-03-14T09:48:17.708Z,13.90
2018-03-14T09:50:46.540Z,14.30
2018-03-14T09:53:15.411Z,13.93
2018-03-14T09:55:44.344Z,12.73
2018-03-14T09:58:13.191Z,13.33
2018-03-14T10:00:42.090Z,13.03
2018-03-14T10:03:10.952Z,11.33
2018-03-14T10:05:39.842Z,11.60
2018-03-14T10:08:08.688Z,11.27
2018-03-14T10:10:37.582Z,12.50
2018-03-14T10:13:06.810Z,11.50
2018-03-14T10:15:35.694Z,11.77
2018-03-14T10:18:04.552Z,11.57
2018-03-14T10:20:33.410Z,10.90
2018-03-14T10:23:02.246Z,11.63
2018-03-14T10:25:31.160Z,11.90
2018-03-14T10:27:59.948Z,10.60
2018-03-14T10:30:28.856Z,10.33
2018-03-14T10:32:57.956Z,11.37
2018-03-14T10:35:26.800Z,10.63
2018-03-14T10:37:55.636Z,9.47
2018-03-14T10:40:24.536Z,10.57
2018-03-14T10:42:53.846Z,10.17
2018-03-14T10:45:22.710Z,10.40
2018-03-14T10:47:51.572Z,9.77
2018-03-14T10:50:20.432Z,9.93
2018-03-14T10:52:49.273Z,9.87
2018-03-14T10:55:18.286Z,9.67
2018-03-14T10:57:47.122Z,9.63
2018-03-14T11:00:21.811Z,8.00
2018-03-14T11:02:52.481Z,5.30
2018-03-14T11:05:21.326Z,5.10
2018-03-14T11:07:50.207Z,6.00
2018-03-14T11:10:19.171Z,6.87
2018-03-14T11:12:50.452Z,8.27
2018-03-14T11:15:19.616Z,7.17
2018-03-14T11:17:49.200Z,8.50
2018-03-14T11:20:18.397Z,8.10
2018-03-14T11:22:47.322Z,5.27
2018-03-14T11:25:16.176Z,5.30
2018-03-14T11:27:45.863Z,5.37
2018-03-14T11:30:14.732Z,6.60
2018-03-14T11:32:43.585Z,7.07
2018-03-14T11:35:12.453Z,7.10
2018-03-14T11:37:41.306Z,6.87
2018-03-14T11:40:10.149Z,7.03
2018-03-14T11:42:39.706Z,7.23
2018-03-14T11:45:08.574Z,6.40
2018-03-14T11:47:37.416Z,7.27
2018-03-14T11:50:06.253Z,7.10
2018-03-14T11:52:35.158Z,6.90
2018-03-14T11:55:04.032Z,6.80
2018-03-14T11:57:32.903Z,6.53
2018-03-14T12:00:01.788Z,5.80
2018-03-14T12:02:30.627Z,5.93
2018-03-14T12:05:00.161Z,6.47
2018-03-14T12:07:29.091Z,6.57
2018-03-14T12:09:57.932Z,6.30
2018-03-14T12:12:27.610Z,5.00
2018-03-14T12:14:56.518Z,6.30
2018-03-14T12:17:25.348Z,5.87
2018-03-14T12:19:54.924Z,5.47
2018-03-14T12:22:29.437Z,6.10
2018-03-14T12:24:58.275Z,6.10
2018-03-14T12:27:27.126Z,5.57
2018-03-14T12:29:56.065Z,5.40
2018-03-14T12:32:24.940Z,5.37
2018-03-14T12:34:54.612Z,5.30
2018-03-14T12:37:23.562Z,6.03
2018-03-14T12:39:52.407Z,6.10
2018-03-14T12:42:21.249Z,5.33
2018-03-14T12:44:50.119Z,5.70
2018-03-14T12:47:19.001Z,6.40
2018-03-14T12:49:47.933Z,6.50
2018-03-14T12:52:16.960Z,7.17
2018-03-14T12:54:45.804Z,6.90
2018-03-14T12:57:14.706Z,6.80
2018-03-14T12:59:43.535Z,6.73
2018-03-14T13:02:12.601Z,6.80
2018-03-14T13:04:41.451Z,7.13
2018-03-14T13:07:10.311Z,6.67
2018-03-14T13:09:39.146Z,6.73
2018-03-14T13:12:08.001Z,5.97
2018-03-14T13:14:37.618Z,6.20
2018-03-14T13:17:06.470Z,5.57
2018-03-14T13:19:35.318Z,6.10
2018-03-14T13:22:04.227Z,6.00
2018-03-14T13:24:33.069Z,6.00
2018-03-14T13:27:02.000Z,6.13
2018-03-14T13:29:31.867Z,5.80
2018-03-14T13:32:00.742Z,5.57
2018-03-14T13:34:29.615Z,6.53
2018-03-14T13:36:59.135Z,6.70
2018-03-14T13:39:28.005Z,6.60
2018-03-14T13:41:56.853Z,7.20
2018-03-14T13:44:25.705Z,7.43
2018-03-14T13:46:54.567Z,6.23
2018-03-14T13:49:23.719Z,5.80
2018-03-14T13:51:52.599Z,6.17
2018-03-14T13:54:21.465Z,6.37
2018-03-14T13:56:50.919Z,6.80
2018-03-14T13:59:20.234Z,6.97
2018-03-14T14:01:49.083Z,7.40
2018-03-14T14:04:17.931Z,6.97
2018-03-14T14:06:46.802Z,7.37
2018-03-14T14:09:15.667Z,8.20
2018-03-14T14:11:44.495Z,7.67
2018-03-14T14:14:13.545Z,8.93
2018-03-14T14:16:43.513Z,7.10
2018-03-14T14:19:12.655Z,5.80
2018-03-14T14:21:41.515Z,5.83
2018-03-14T14:24:10.365Z,6.10
2018-03-14T14:26:39.223Z,6.53
2018-03-14T14:29:08.121Z,6.73
2018-03-14T14:31:37.020Z,6.53
2018-03-14T14:34:05.864Z,7.27
2018-03-14T14:36:34.756Z,7.40
2018-03-14T14:39:03.652Z,6.53
2018-03-14T14:41:32.614Z,6.57
2018-03-14T14:44:01.416Z,6.33
2018-03-14T14:46:31.055Z,6.53
2018-03-14T14:51:38.542Z,6.43
2018-03-14T14:54:08.894Z,6.57
2018-03-14T14:56:37.768Z,5.97
2018-03-14T14:59:06.611Z,6.10
2018-03-14T15:01:35.496Z,6.63
2018-03-14T15:04:04.675Z,5.67
2018-03-14T15:06:33.506Z,6.27
2018-03-14T15:09:02.441Z,6.10
2018-03-14T15:11:32.234Z,6.43
2018-03-14T15:14:01.072Z,6.10
2018-03-14T15:16:29.983Z,6.43
2018-03-14T15:18:59.508Z,6.40
2018-03-14T15:21:29.272Z,6.23
2018-03-14T15:23:58.085Z,6.00
2018-03-14T15:26:26.949Z,5.90
2018-03-14T15:28:55.788Z,5.90
2018-03-14T15:31:24.657Z,6.33
2018-03-14T15:33:53.604Z,6.23
2018-03-14T15:36:22.442Z,5.80
2018-03-14T15:38:51.354Z,6.53
2018-03-14T15:41:20.188Z,6.57
2018-03-14T15:43:49.046Z,6.47
2018-03-14T15:46:17.936Z,5.93
2018-03-14T15:48:47.911Z,6.03
2018-03-14T15:51:16.772Z,6.27
2018-03-14T15:53:51.055Z,6.60
2018-03-14T15:56:23.040Z,7.07
2018-03-14T15:58:52.092Z,6.30
2018-03-14T16:01:20.954Z,7.23
2018-03-14T16:03:49.840Z,5.27
2018-03-14T16:06:22.472Z,5.70
2018-03-14T16:08:52.219Z,5.50
2018-03-14T16:11:21.084Z,6.10
2018-03-14T16:13:49.955Z,5.97
2018-03-14T16:16:19.108Z,6.23
2018-03-14T16:18:47.968Z,6.67
2018-03-14T16:21:16.840Z,6.10
2018-03-14T16:23:45.751Z,5.87
2018-03-14T16:26:14.621Z,6.17
2018-03-14T16:28:43.476Z,6.43
2018-03-14T16:31:12.330Z,5.77
2018-03-14T16:33:41.184Z,6.57
2018-03-14T16:36:10.732Z,6.60
2018-03-14T16:38:39.668Z,6.97
2018-03-14T16:41:08.520Z,6.90
2018-03-14T16:43:37.518Z,5.67
2018-03-14T16:46:06.406Z,7.23
2018-03-14T16:48:35.284Z,6.60
2018-03-14T16:51:04.175Z,7.20
2018-03-14T16:53:33.672Z,6.27
2018-03-14T16:56:03.204Z,6.53
2018-03-14T16:58:32.408Z,6.73
2018-03-14T17:01:01.245Z,7.63
2018-03-14T17:03:30.376Z,6.50
2018-03-14T17:05:59.992Z,6.67
2018-03-14T17:08:28.877Z,7.10
2018-03-14T17:10:57.749Z,6.43
2018-03-14T17:13:26.657Z,6.63
2018-03-14T17:15:55.583Z,7.13
2018-03-14T17:18:24.781Z,7.77
2018-03-14T17:20:53.690Z,7.70
2018-03-14T17:23:22.536Z,9.10
2018-03-14T17:25:51.449Z,8.40
2018-03-14T17:28:22.893Z,8.67
2018-03-14T17:30:52.668Z,8.47
2018-03-14T17:33:22.330Z,8.20
2018-03-14T17:35:53.065Z,8.53
2018-03-14T17:41:30.329Z,7.67
2018-03-14T17:44:23.822Z,8.47
2018-03-14T17:49:29.431Z,8.53
2018-03-14T17:51:59.888Z,7.97
2018-03-14T17:54:28.768Z,15.43
2018-03-14T17:57:04.152Z,7.97
2018-03-14T17:59:33.350Z,9.00
2018-03-14T18:02:02.218Z,8.47
2018-03-14T18:04:33.060Z,8.23
2018-03-14T18:07:02.251Z,8.53
2018-03-14T18:09:31.125Z,8.07
2018-03-14T18:12:00.013Z,8.40
2018-03-14T18:14:28.860Z,8.50
2018-03-14T18:16:57.839Z,8.10
2018-03-14T18:19:26.709Z,8.70
2018-03-14T18:21:55.551Z,7.47
2018-03-14T18:24:24.404Z,8.43
2018-03-14T18:26:54.426Z,8.37
2018-03-14T18:29:23.270Z,8.50
2018-03-14T18:31:52.234Z,8.07
2018-03-14T18:34:21.165Z,8.93
2018-03-14T18:36:50.044Z,9.07
2018-03-14T18:39:19.822Z,11.87
2018-03-14T18:41:48.711Z,8.70
2018-03-14T18:44:17.559Z,9.40
2018-03-14T18:46:46.398Z,9.70
2018-03-14T18:49:15.320Z,10.00
2018-03-14T18:51:44.894Z,8.90
2018-03-14T18:54:13.732Z,8.77
2018-03-14T18:56:42.586Z,9.10
2018-03-14T18:59:14.684Z,9.07
2018-03-14T19:04:19.754Z,10.57
2018-03-14T19:09:23.216Z,13.37
2018-03-14T19:11:52.123Z,9.93
2018-03-14T19:14:21.273Z,10.03
2018-03-14T19:16:50.213Z,10.37
2018-03-14T19:19:19.119Z,11.50
2018-03-14T19:21:48.020Z,10.63
2018-03-14T19:24:17.286Z,11.10
2018-03-14T19:26:46.644Z,10.30
2018-03-14T19:29:15.489Z,11.03
2018-03-14T19:31:44.362Z,11.03
2018-03-14T19:34:13.239Z,11.20
2018-03-14T19:36:43.130Z,10.30
2018-03-14T19:39:14.124Z,11.23
2018-03-14T19:41:43.359Z,11.80
2018-03-14T19:44:12.910Z,10.77
2018-03-14T19:46:41.752Z,11.37
2018-03-14T19:49:10.594Z,11.83
2018-03-14T19:51:40.318Z,10.87
2018-03-14T19:54:09.215Z,10.10
2018-03-14T19:56:38.570Z,11.40
2018-03-14T19:59:08.840Z,11.17
2018-03-14T20:01:38.985Z,10.57
2018-03-14T20:04:08.714Z,11.47
2018-03-14T20:06:37.587Z,11.07
2018-03-14T20:09:06.515Z,10.30
2018-03-14T20:11:35.375Z,10.93
2018-03-14T20:14:04.261Z,10.83
2018-03-14T20:16:33.132Z,10.37
2018-03-14T20:19:01.988Z,11.10
2018-03-14T20:21:31.596Z,11.27
2018-03-14T20:24:00.744Z,11.30
2018-03-14T20:26:29.702Z,9.57
2018-03-14T20:28:59.160Z,9.53
2018-03-14T20:31:27.995Z,11.47
2018-03-14T20:33:57.192Z,11.13
2018-03-14T20:36:26.056Z,11.10
2018-03-14T20:38:55.647Z,10.50
2018-03-14T20:41:24.524Z,11.00
2018-03-14T20:43:53.474Z,10.00
2018-03-14T20:46:22.310Z,9.83
2018-03-14T20:48:51.184Z,10.13
2018-03-14T20:51:20.052Z,10.00
2018-03-14T20:53:49.035Z,10.20
2018-03-14T20:56:17.912Z,10.00
2018-03-14T20:58:46.777Z,10.37
2018-03-14T21:01:16.201Z,10.67
2018-03-14T21:03:45.090Z,9.90
2018-03-14T21:06:13.935Z,10.10
2018-03-14T21:08:42.828Z,10.20
2018-03-14T21:11:12.490Z,10.57
2018-03-14T21:13:41.400Z,12.23
2018-03-14T21:16:10.292Z,9.47
2018-03-14T21:18:40.084Z,10.07
2018-03-14T21:21:09.808Z,11.50
2018-03-14T21:23:39.116Z,11.20
2018-03-14T21:26:08.019Z,10.63
2018-03-14T21:28:37.980Z,14.80
2018-03-14T21:31:06.868Z,9.60
2018-03-14T21:33:35.728Z,11.37
2018-03-14T21:36:09.659Z,14.17
2018-03-14T21:38:43.340Z,11.03
2018-03-14T21:41:12.287Z,10.30
2018-03-14T21:43:45.336Z,11.17
2018-03-14T21:46:14.263Z,10.60
2018-03-14T21:48:43.140Z,10.10
2018-03-14T21:54:14.632Z,10.23
2018-03-14T21:56:44.423Z,11.07
2018-03-14T21:59:13.292Z,10.30
2018-03-14T22:01:42.150Z,10.60
2018-03-14T22:04:11.038Z,10.67
2018-03-14T22:06:39.929Z,9.67
2018-03-14T22:11:42.098Z,11.13
2018-03-14T22:14:10.935Z,10.70
2018-03-14T22:16:42.406Z,10.53
2018-03-14T22:19:11.253Z,10.53
2018-03-14T22:21:40.938Z,11.60
2018-03-14T22:24:10.999Z,10.67
2018-03-14T22:26:41.763Z,11.03
2018-03-14T22:29:10.643Z,11.00
2018-03-14T22:31:40.204Z,10.53
2018-03-14T22:34:09.151Z,10.80
2018-03-14T22:36:38.030Z,11.17
2018-03-14T22:39:07.314Z,10.93
2018-03-14T22:41:36.164Z,10.33
2018-03-14T22:44:05.143Z,10.97
2018-03-14T22:46:33.994Z,10.63
2018-03-14T22:49:02.851Z,10.90
2018-03-14T22:51:31.751Z,9.13
2018-03-14T22:54:00.586Z,9.57
2018-03-14T22:56:30.254Z,10.37
2018-03-14T22:59:00.472Z,9.60
2018-03-14T23:01:29.329Z,8.67
2018-03-14T23:03:58.204Z,8.60
2018-03-14T23:06:27.104Z,8.93
2018-03-14T23:08:55.975Z,8.37
2018-03-14T23:11:24.846Z,7.77
2018-03-14T23:13:54.618Z,8.40
2018-03-14T23:16:23.470Z,9.73
2018-03-14T23:18:52.333Z,9.57
2018-03-14T23:21:21.165Z,9.50
2018-03-14T23:26:27.107Z,8.73
2018-03-14T23:28:55.955Z,8.67
2018-03-14T23:31:28.953Z,8.77
2018-03-14T23:33:57.803Z,9.33
2018-03-14T23:36:26.657Z,9.60
2018-03-14T23:38:55.514Z,8.33
2018-03-14T23:41:24.711Z,7.83
2018-03-14T23:43:54.941Z,9.20
2018-03-14T23:46:24.984Z,9.90
2018-03-14T23:48:55.623Z,9.17
2018-03-14T23:51:25.594Z,8.87
2018-03-14T23:53:54.435Z,9.00
2018-03-14T23:56:23.302Z,9.73
2018-03-14T23:58:52.175Z,8.97
